Flight Track Log - Related Links

Times and Time Zones

All times are in EDT time to prevent confusion due to time zone crossing. See the SAS903 flight status page for this flight to view local times or setup timezone preferences in your user account.

Time Position Orientation Groundspeed Altitude Reporting Facility
EDT Latitude Longitude Course Direction KTS MPH feet Rate Location/Type
Mon 04:45:45 AM 59.6240 17.9080 190° South 160 184 1,400  Level FlightAware ADS-B
Mon 04:45:59 AM 59.6140 17.9040 191° South 152 175 1,800 1,200 Climbing FlightAware ADS-B
Mon 04:46:15 AM 59.6050 17.8900 218° Southwest 156 180 2,000 1,091 Climbing FlightAware ADS-B
Mon 04:46:43 AM 59.5950 17.8540 241° Southwest 164 189 2,600 1,500 Climbing FlightAware ADS-B
Mon 04:46:55 AM 59.5900 17.8380 238° Southwest 164 189 3,000 1,231 Climbing FlightAware ADS-B
Mon 04:47:22 AM 59.5810 17.7990 246° West 182 209 3,400 873 Climbing FlightAware ADS-B
Mon 04:47:50 AM 59.5700 17.7530 245° Southwest 208 239 3,800 1,350 Climbing FlightAware ADS-B
Mon 04:48:02 AM 59.5680 17.7310 260° West 202 232 4,300 1,773 Climbing FlightAware ADS-B
Mon 04:48:34 AM 59.5690 17.6730 272° West 211 243 5,100 1,258 Climbing FlightAware ADS-B
Mon 04:49:04 AM 59.5790 17.6150 289° West 249 287 5,600 1,200 Climbing FlightAware ADS-B
Mon 04:49:14 AM 59.5890 17.6050 333° Northwest 263 303 5,900 2,053 Climbing FlightAware ADS-B
Mon 04:49:42 AM 59.6240 17.6140 North 283 326 6,900 2,250 Climbing FlightAware ADS-B
Mon 04:50:26 AM 59.6790 17.5960 351° North 279 321 8,600 2,137 Climbing FlightAware ADS-B
Mon 04:50:55 AM 59.7140 17.5680 338° Northwest 290 334 9,500 1,875 Climbing FlightAware ADS-B
Mon 04:51:30 AM 59.7590 17.5370 341° North 299 344 10,600 1,360 Climbing FlightAware ADS-B
Mon 04:52:10 AM 59.8140 17.4950 339° North 333 383 11,200 1,214 Climbing FlightAware ADS-B
Mon 04:52:54 AM 59.8710 17.4140 325° Northwest 353 406 12,300 1,643 Climbing FlightAware ADS-B
Mon 04:53:34 AM 59.9260 17.3360 325° Northwest 363 418 13,500 1,875 Climbing FlightAware ADS-B
Mon 04:54:14 AM 59.9790 17.2590 324° Northwest 368 423 14,800 1,953 Climbing FlightAware ADS-B
Mon 04:55:00 AM 60.0440 17.1660 324° Northwest 375 432 16,300 1,814 Climbing FlightAware ADS-B
Mon 04:55:40 AM 60.1000 17.0830 324° Northwest 381 438 17,400 1,671 Climbing FlightAware ADS-B
Mon 04:56:19 AM 60.1550 17.0030 324° Northwest 385 443 18,500 1,650 Climbing FlightAware ADS-B
Mon 04:57:00 AM 60.2150 16.9160 324° Northwest 392 451 19,600 1,630 Climbing FlightAware ADS-B
Mon 04:57:40 AM 60.2740 16.8290 324° Northwest 396 456 20,700 1,407 Climbing FlightAware ADS-B
Mon 04:58:21 AM 60.3340 16.7400 324° Northwest 404 465 21,500 1,558 Climbing FlightAware ADS-B
Mon 04:58:57 AM 60.3890 16.6600 324° Northwest 396 456 22,700 2,211 Climbing FlightAware ADS-B
Mon 04:59:37 AM 60.4460 16.5740 323° Northwest 383 441 24,300 1,850 Climbing FlightAware ADS-B
Mon 05:00:44 AM 60.5380 16.4360 324° Northwest 377 434 26,000 1,402 Climbing FlightAware ADS-B
Mon 05:01:24 AM 60.5940 16.3510 323° Northwest 381 438 26,800 1,071 Climbing FlightAware ADS-B
Mon 05:02:08 AM 60.6570 16.2560 324° Northwest 386 444 27,500 900 Climbing FlightAware ADS-B
Mon 05:02:44 AM 60.7090 16.1770 323° Northwest 393 452 28,000 615 Climbing FlightAware ADS-B
Mon 05:03:26 AM 60.7710 16.0830 324° Northwest 405 466 28,300 419 Climbing FlightAware ADS-B
Mon 05:04:10 AM 60.8370 15.9800 323° Northwest 416 479 28,600 474 Climbing FlightAware ADS-B
Mon 05:04:42 AM 60.8880 15.9020 323° Northwest 424 488 28,900 583 Climbing FlightAware ADS-B
Mon 05:05:22 AM 60.9490 15.8070 323° Northwest 429 494 29,300 565 Climbing FlightAware ADS-B
Mon 05:06:07 AM 61.0200 15.6960 323° Northwest 436 502 29,700 607 Climbing FlightAware ADS-B
Mon 05:06:51 AM 61.0940 15.5800 323° Northwest 440 506 30,200 786 Climbing FlightAware ADS-B
Mon 05:07:31 AM 61.1590 15.4790 323° Northwest 437 503 30,800 975 Climbing FlightAware ADS-B
Mon 05:08:11 AM 61.2210 15.3790 322° Northwest 433 498 31,500 1,024 Climbing FlightAware ADS-B
Mon 05:08:53 AM 61.2880 15.2740 323° Northwest 427 491 32,200 907 Climbing FlightAware ADS-B
Mon 05:09:37 AM 61.3570 15.1630 322° Northwest 427 491 32,800 786 Climbing FlightAware ADS-B
Mon 05:10:17 AM 61.4200 15.0620 323° Northwest 428 493 33,300 571 Climbing FlightAware ADS-B
Mon 05:11:01 AM 61.4880 14.9510 322° Northwest 433 498 33,600 488 Climbing FlightAware ADS-B
Mon 05:11:43 AM 61.5550 14.8420 322° Northwest 438 504 34,000 293 Climbing FlightAware ADS-B
Mon 05:12:23 AM 61.6190 14.7370 322° Northwest 438 504 34,000  Level FlightAware ADS-B
Mon 05:13:07 AM 61.6890 14.6220 322° Northwest 437 503 34,000  Level FlightAware ADS-B
Mon 05:13:48 AM 61.7540 14.5140 322° Northwest 436 502 34,000  Level FlightAware ADS-B
Mon 05:14:32 AM 61.8230 14.3990 322° Northwest 438 504 34,000  Level FlightAware ADS-B
Mon 05:15:10 AM 61.8840 14.2970 322° Northwest 438 504 34,000  Level FlightAware ADS-B
Mon 05:15:54 AM 61.9530 14.1800 321° Northwest 436 502 34,000  Level FlightAware ADS-B
Mon 05:16:38 AM 62.0220 14.0640 322° Northwest 434 499 34,000  Level FlightAware ADS-B
Mon 05:17:18 AM 62.0850 13.9550 321° Northwest 429 494 34,000  Level FlightAware ADS-B
Mon 05:17:58 AM 62.1450 13.8520 321° Northwest 429 494 34,000  Level FlightAware ADS-B
Mon 05:18:42 AM 62.2140 13.7350 322° Northwest 428 493 34,000  Level FlightAware ADS-B
Mon 05:19:26 AM 62.2810 13.6180 321° Northwest 426 490 34,000  Level FlightAware ADS-B
Mon 05:20:06 AM 62.3420 13.5110 321° Northwest 425 489 34,000  Level FlightAware ADS-B
Mon 05:20:50 AM 62.4090 13.3930 321° Northwest 427 491 34,000  Level FlightAware ADS-B
Mon 05:21:30 AM 62.4710 13.2850 321° Northwest 429 494 34,000  Level FlightAware ADS-B
Mon 05:22:12 AM 62.5350 13.1710 321° Northwest 431 496 34,000  Level FlightAware ADS-B
Mon 05:22:54 AM 62.5990 13.0560 320° Northwest 430 495 34,000  Level FlightAware ADS-B
Mon 05:23:38 AM 62.6660 12.9360 321° Northwest 431 496 34,000  Level FlightAware ADS-B
Mon 05:24:18 AM 62.7270 12.8270 321° Northwest 429 494 34,000  Level FlightAware ADS-B
Mon 05:25:02 AM 62.7940 12.7040 320° Northwest 430 495 34,000  Level FlightAware ADS-B
Mon 05:25:42 AM 62.8550 12.5940 321° Northwest 427 491 34,000  Level FlightAware ADS-B
Mon 05:26:26 AM 62.9220 12.4700 320° Northwest 425 489 34,000  Level FlightAware ADS-B
Mon 05:27:07 AM 62.9840 12.3550 320° Northwest 437 503 34,000  Level FlightAware ADS-B
Mon 05:27:48 AM 63.0470 12.2380 320° Northwest 443 510 34,000  Level FlightAware ADS-B
Mon 05:28:32 AM 63.1160 12.1090 320° Northwest 445 512 34,000  Level FlightAware ADS-B
Mon 05:29:12 AM 63.1790 11.9910 320° Northwest 445 512 34,000  Level FlightAware ADS-B
Mon 05:29:56 AM 63.2480 11.8610 320° Northwest 446 513 34,000  Level FlightAware ADS-B
Mon 05:31:03 AM 63.3300 11.7030 319° Northwest 451 519 34,000  Level FlightAware ADS-B
Mon 05:31:47 AM 63.4200 11.5310 319° Northwest 449 517 34,000  Level FlightAware ADS-B
Mon 05:32:30 AM 63.4900 11.3950 319° Northwest 452 520 34,000  Level FlightAware ADS-B
Mon 05:33:11 AM 63.5530 11.2730 319° Northwest 449 517 34,000 225 Level FlightAware ADS-B
Mon 05:33:50 AM 63.6150 11.1500 319° Northwest 436 502 34,300 857 Climbing FlightAware ADS-B
Mon 05:34:35 AM 63.6830 11.0170 319° Northwest 429 494 35,200 1,000 Climbing FlightAware ADS-B
Mon 05:35:20 AM 63.7490 10.8840 318° Northwest 432 497 35,800 424 Climbing FlightAware ADS-B
Mon 05:36:00 AM 63.8090 10.7640 319° Northwest 437 503 35,800  Level FlightAware ADS-B
Mon 05:36:44 AM 63.8790 10.6250 319° Northwest 453 521 35,800 145 Level FlightAware ADS-B
Mon 05:37:23 AM 63.9400 10.5000 318° Northwest 456 525 36,000 143 Climbing FlightAware ADS-B
Mon 05:38:08 AM 64.0110 10.3570 319° Northwest 456 525 36,000  Level FlightAware ADS-B
Mon 05:38:48 AM 64.0730 10.2280 318° Northwest 451 519 36,000  Level FlightAware ADS-B
Mon 05:39:33 AM 64.1410 10.0870 318° Northwest 443 510 36,000  Level FlightAware ADS-B
Mon 05:40:13 AM 64.2020 9.9600 318° Northwest 444 511 36,000  Level FlightAware ADS-B
Mon 05:40:54 AM 64.2670 9.8250 318° Northwest 450 518 36,000  Level FlightAware ADS-B
Mon 05:41:30 AM 64.3200 9.7120 317° Northwest 450 518 36,000  Level FlightAware ADS-B
Mon 05:42:12 AM 64.3860 9.5730 318° Northwest 452 520 36,000  Level FlightAware ADS-B
Mon 05:42:54 AM 64.4500 9.4370 318° Northwest 452 520 36,000  Level FlightAware ADS-B
Mon 05:43:30 AM 64.5050 9.3180 317° Northwest 454 522 36,000  Level FlightAware ADS-B
Mon 05:44:10 AM 64.5660 9.1870 317° Northwest 454 522 36,000  Level FlightAware ADS-B
Mon 05:44:54 AM 64.6340 9.0380 317° Northwest 454 522 36,000  Level FlightAware ADS-B
Mon 05:45:34 AM 64.6950 8.9040 317° Northwest 454 522 36,000  Level FlightAware ADS-B
Mon 05:46:14 AM 64.7560 8.7700 317° Northwest 454 522 36,000  Level FlightAware ADS-B
Mon 05:46:58 AM 64.8220 8.6250 317° Northwest 454 522 36,000  Level FlightAware ADS-B
Mon 05:47:36 AM 64.8800 8.4950 316° Northwest 454 522 36,000  Level FlightAware ADS-B
Mon 05:48:18 AM 64.9430 8.3530 316° Northwest 454 522 36,000  Level FlightAware ADS-B
Mon 05:49:07 AM 65.0110 8.1990 316° Northwest 454 522 36,000  Level FlightAware ADS-B
Mon 05:49:54 AM 65.0890 8.0220 316° Northwest 452 520 36,000  Level FlightAware ADS-B
Mon 05:50:30 AM 65.1430 7.8960 316° Northwest 451 519 36,000  Level FlightAware ADS-B
Mon 05:51:10 AM 65.2020 7.7590 316° Northwest 453 521 36,000  Level FlightAware ADS-B
Mon 05:51:50 AM 65.2620 7.6200 316° Northwest 453 521 36,000  Level FlightAware ADS-B
Mon 05:52:48 AM 65.3380 7.4410 316° Northwest 454 522 36,000  Level FlightAware ADS-B
Mon 05:53:36 AM 65.3980 7.2950 315° West 454 522 36,000  Level FlightAware ADS-B
Mon 05:54:12 AM 65.4440 7.1860 315° West 454 522 36,000  Level FlightAware ADS-B
Mon 05:55:01 AM 65.5060 7.0370 315° West 454 522 36,000  Level FlightAware ADS-B
Mon 05:55:37 AM 65.5510 6.9270 315° West 454 522 36,000  Level FlightAware ADS-B
Mon 05:56:25 AM 65.6120 6.7800 315° West 454 522 36,000  Level FlightAware ADS-B
Mon 05:57:02 AM 65.6580 6.6670 315° West 454 522 36,000  Level FlightAware ADS-B
Mon 05:57:50 AM 65.7190 6.5200 315° West 454 522 36,000  Level FlightAware ADS-B
Mon 05:58:26 AM 65.7640 6.4090 315° West 454 522 36,000  Level FlightAware ADS-B
Mon 05:59:15 AM 65.8260 6.2580 315° West 454 522 36,000  Level FlightAware ADS-B
Mon 05:59:51 AM 65.8720 6.1470 315° West 454 522 36,000  Level FlightAware ADS-B
Mon 06:00:39 AM 65.9320 5.9990 315° West 454 522 36,000  Level FlightAware ADS-B
Mon 06:01:15 AM 65.9780 5.8870 315° West 454 522 36,000  Level FlightAware ADS-B
Mon 06:02:03 AM 66.0380 5.7380 315° West 454 522 36,000 12 Level FlightAware ADS-B
Mon 06:04:00 AM 66.0808 5.1748 281° West  Level Estimated
Mon 06:05:00 AM 66.1020 4.8852 280° West  Level Estimated
Mon 06:06:00 AM 66.1226 4.5952 280° West  Level Estimated
Mon 06:07:00 AM 66.1427 4.3047 280° West  Level Estimated
Mon 06:08:00 AM 66.1622 4.0137 280° West  Level Estimated
Mon 06:09:00 AM 66.1812 3.7223 279° West  Level Estimated
Mon 06:10:00 AM 66.1997 3.4305 279° West  Level Estimated
Mon 06:11:00 AM 66.2176 3.1382 279° West  Level Estimated
Mon 06:12:00 AM 66.2349 2.8456 278° West  Level Estimated
Mon 06:13:00 AM 66.2517 2.5525 278° West  Level Estimated
Mon 06:14:00 AM 66.2679 2.2591 278° West  Level Estimated
Mon 06:15:00 AM 66.2836 1.9653 278° West  Level Estimated
Mon 06:16:00 AM 66.2987 1.6711 277° West  Level Estimated
Mon 06:17:00 AM 66.3133 1.3766 277° West  Level Estimated
Mon 06:18:00 AM 66.3273 1.0817 277° West  Level Estimated
Mon 06:19:00 AM 66.3407 0.7865 277° West  Level Estimated
Mon 06:20:00 AM 66.3536 0.4911 276° West  Level Estimated
Mon 06:21:00 AM 66.3660 0.1953 276° West  Level Estimated
Mon 06:22:00 AM 66.3777 -0.1008 276° West  Level Estimated
Mon 06:23:00 AM 66.3889 -0.3971 276° West  Level Estimated
Mon 06:24:00 AM 66.3996 -0.6937 275° West  Level Estimated
Mon 06:25:00 AM 66.4097 -0.9906 275° West  Level Estimated
Mon 06:26:00 AM 66.4192 -1.2877 275° West  Level Estimated
Mon 06:27:00 AM 66.4281 -1.5850 274° West  Level Estimated
Mon 06:28:00 AM 66.4365 -1.8825 274° West  Level Estimated
Mon 06:29:00 AM 66.4443 -2.1802 274° West  Level Estimated
Mon 06:30:00 AM 66.4516 -2.4780 274° West  Level Estimated
Mon 06:31:00 AM 66.4583 -2.7761 273° West  Level Estimated
Mon 06:32:00 AM 66.4644 -3.0742 273° West  Level Estimated
Mon 06:33:00 AM 66.4699 -3.3726 273° West  Level Estimated
Mon 06:34:00 AM 66.4749 -3.6710 273° West  Level Estimated
Mon 06:35:00 AM 66.4793 -3.9696 272° West  Level Estimated
Mon 06:36:00 AM 66.4832 -4.2683 272° West  Level Estimated
Mon 06:37:00 AM 66.4864 -4.5670 272° West  Level Estimated
Mon 06:38:00 AM 66.4891 -4.8659 271° West  Level Estimated
Mon 06:39:00 AM 66.4913 -5.1648 271° West  Level Estimated
Mon 06:40:00 AM 66.4928 -5.4637 271° West  Level Estimated
Mon 06:41:00 AM 66.4938 -5.7626 271° West  Level Estimated
Mon 06:42:00 AM 66.4942 -6.0616 270° West  Level Estimated
Mon 06:43:00 AM 66.4941 -6.3606 270° West  Level Estimated
Mon 06:44:00 AM 66.4934 -6.6596 270° West  Level Estimated
Mon 06:45:00 AM 66.4921 -6.9585 270° West  Level Estimated
Mon 06:46:00 AM 66.4902 -7.2574 269° West  Level Estimated
Mon 06:47:00 AM 66.4878 -7.5563 269° West  Level Estimated
Mon 06:48:00 AM 66.4848 -7.8551 269° West  Level Estimated
Mon 06:49:00 AM 66.4812 -8.1538 268° West  Level Estimated
Mon 06:50:00 AM 66.4771 -8.4524 268° West  Level Estimated
Mon 06:51:00 AM 66.4724 -8.7509 268° West  Level Estimated
Mon 06:52:00 AM 66.4671 -9.0493 268° West  Level Estimated
Mon 06:53:00 AM 66.4612 -9.3476 267° West  Level Estimated
Mon 06:54:00 AM 66.4548 -9.6457 267° West  Level Estimated
Mon 06:55:00 AM 66.4478 -9.9436 267° West  Level Estimated
Mon 06:56:00 AM 66.4403 -10.2414 267° West  Level Estimated
Mon 06:57:00 AM 66.4322 -10.5390 266° West  Level Estimated
Mon 06:58:00 AM 66.4235 -10.8364 266° West  Level Estimated
Mon 06:59:00 AM 66.4142 -11.1336 266° West  Level Estimated
Mon 07:00:00 AM 66.4044 -11.4305 265° West  Level Estimated
Mon 07:01:00 AM 66.3940 -11.7272 265° West  Level Estimated
Mon 07:02:00 AM 66.3831 -12.0237 265° West  Level Estimated
Mon 07:03:00 AM 66.3716 -12.3199 265° West  Level Estimated
Mon 07:04:00 AM 66.3595 -12.6158 264° West  Level Estimated
Mon 07:05:00 AM 66.3469 -12.9114 264° West  Level Estimated
Mon 07:06:00 AM 66.3337 -13.2067 264° West  Level Estimated
Mon 07:07:00 AM 66.3199 -13.5018 264° West  Level Estimated
Mon 07:08:00 AM 66.3056 -13.7964 263° West  Level Estimated
Mon 07:09:00 AM 66.2907 -14.0908 263° West  Level Estimated
Mon 07:10:00 AM 66.2753 -14.3848 263° West  Level Estimated
Mon 07:11:00 AM 66.2594 -14.6784 262° West  Level Estimated
Mon 07:12:00 AM 66.2428 -14.9716 262° West  Level Estimated
Mon 07:13:00 AM 66.2258 -15.2645 262° West  Level Estimated
Mon 07:14:00 AM 66.2081 -15.5569 262° West  Level Estimated
Mon 07:15:00 AM 66.1899 -15.8489 261° West  Level Estimated
Mon 07:16:00 AM 66.1712 -16.1405 261° West  Level Estimated
Mon 07:17:00 AM 66.1519 -16.4317 261° West  Level Estimated
Mon 07:18:00 AM 66.1321 -16.7224 261° West  Level Estimated
Mon 07:19:00 AM 66.1117 -17.0127 260° West  Level Estimated
Mon 07:20:00 AM 66.0908 -17.3025 260° West  Level Estimated
Mon 07:21:00 AM 66.0694 -17.5917 260° West  Level Estimated
Mon 07:22:00 AM 66.0474 -17.8806 260° West  Level Estimated
Mon 07:23:00 AM 66.0248 -18.1689 259° West  Level Estimated
Mon 07:24:00 AM 66.0017 -18.4566 259° West  Level Estimated
Mon 07:25:00 AM 65.9781 -18.7439 259° West  Level Estimated
Mon 07:26:00 AM 65.9540 -19.0306 258° West  Level Estimated
Mon 07:27:00 AM 65.9293 -19.3168 258° West  Level Estimated
Mon 07:28:00 AM 65.9041 -19.6024 258° West  Level Estimated
Mon 07:29:00 AM 65.8784 -19.8875 258° West  Level Estimated
Mon 07:30:00 AM 65.8521 -20.1719 257° West  Level Estimated
Mon 07:31:00 AM 65.8253 -20.4558 257° West  Level Estimated
Mon 07:32:00 AM 65.7980 -20.7391 257° West  Level Estimated
Mon 07:33:00 AM 65.7701 -21.0218 257° West  Level Estimated
Mon 07:34:00 AM 65.7418 -21.3039 256° West  Level Estimated
Mon 07:35:00 AM 65.7129 -21.5853 256° West  Level Estimated
Mon 07:36:00 AM 65.6835 -21.8661 256° West  Level Estimated
Mon 07:37:00 AM 65.6536 -22.1463 256° West  Level Estimated
Mon 07:38:00 AM 65.6232 -22.4258 255° West  Level Estimated
Mon 07:39:00 AM 65.5922 -22.7047 255° West  Level Estimated
Mon 07:40:00 AM 65.5608 -22.9829 255° West  Level Estimated
Mon 07:41:00 AM 65.5288 -23.2604 255° West  Level Estimated
Mon 07:42:00 AM 65.4964 -23.5372 254° West  Level Estimated
Mon 07:43:00 AM 65.4634 -23.8133 254° West  Level Estimated
Mon 07:44:00 AM 65.4299 -24.0888 254° West  Level Estimated
Mon 07:45:00 AM 65.3960 -24.3635 254° West  Level Estimated
Mon 07:46:00 AM 65.3615 -24.6375 253° West  Level Estimated
Mon 07:47:00 AM 65.3266 -24.9108 253° West  Level Estimated
Mon 07:48:00 AM 65.2911 -25.1834 253° West  Level Estimated
Mon 07:49:00 AM 65.2552 -25.4552 253° West  Level Estimated
Mon 07:50:00 AM 65.2188 -25.7263 252° West  Level Estimated
Mon 07:51:00 AM 65.1818 -25.9966 252° West  Level Estimated
Mon 07:52:00 AM 65.1444 -26.2662 252° West  Level Estimated
Mon 07:53:00 AM 65.1066 -26.5350 252° West  Level Estimated
Mon 07:54:00 AM 65.0682 -26.8030 251° West  Level Estimated
Mon 07:55:00 AM 65.0294 -27.0703 251° West  Level Estimated
Mon 07:56:00 AM 64.9900 -27.3368 251° West  Level Estimated
Mon 07:57:00 AM 64.9502 -27.6024 251° West  Level Estimated
Mon 07:58:00 AM 64.9100 -27.8673 250° West  Level Estimated
Mon 07:59:00 AM 64.8692 -28.1314 250° West  Level Estimated
Mon 08:00:00 AM 64.8280 -28.3947 250° West  Level Estimated
Mon 08:01:00 AM 64.7864 -28.6572 250° West  Level Estimated
Mon 08:02:00 AM 64.7443 -28.9189 249° West  Level Estimated
Mon 08:03:00 AM 64.7017 -29.1798 249° West  Level Estimated
Mon 08:04:00 AM 64.6587 -29.4398 249° West  Level Estimated
Mon 08:05:00 AM 64.6152 -29.6990 249° West  Level Estimated
Mon 08:06:00 AM 64.5712 -29.9573 248° West  Level Estimated
Mon 08:07:00 AM 64.5268 -30.2149 248° West  Level Estimated
Mon 08:08:00 AM 64.4819 -30.4716 248° West  Level Estimated
Mon 08:09:00 AM 64.4367 -30.7274 248° West  Level Estimated
Mon 08:10:00 AM 64.3909 -30.9824 248° West  Level Estimated
Mon 08:11:00 AM 64.3447 -31.2366 247° West  Level Estimated
Mon 08:12:00 AM 64.2981 -31.4899 247° West  Level Estimated
Mon 08:13:00 AM 64.2511 -31.7423 247° West  Level Estimated
Mon 08:14:00 AM 64.2036 -31.9939 247° West  Level Estimated
Mon 08:15:00 AM 64.1557 -32.2446 246° West  Level Estimated
Mon 08:16:00 AM 64.1073 -32.4944 246° West  Level Estimated
Mon 08:17:00 AM 64.0586 -32.7434 246° West  Level Estimated
Mon 08:18:00 AM 64.0094 -32.9915 246° West  Level Estimated
Mon 08:19:00 AM 63.9598 -33.2387 246° West  Level Estimated
Mon 08:20:00 AM 63.9097 -33.4850 245° Southwest  Level Estimated
Mon 08:21:00 AM 63.8593 -33.7305 245° Southwest  Level Estimated
Mon 08:22:00 AM 63.8084 -33.9751 245° Southwest  Level Estimated
Mon 08:23:00 AM 63.7571 -34.2188 245° Southwest  Level Estimated
Mon 08:24:00 AM 63.7054 -34.4616 244° Southwest  Level Estimated
Mon 08:25:00 AM 63.6533 -34.7035 244° Southwest  Level Estimated
Mon 08:26:00 AM 63.6008 -34.9445 244° Southwest  Level Estimated
Mon 08:27:00 AM 63.5479 -35.1846 244° Southwest  Level Estimated
Mon 08:28:00 AM 63.4946 -35.4239 244° Southwest  Level Estimated
Mon 08:29:00 AM 63.4409 -35.6622 243° Southwest  Level Estimated
Mon 08:30:00 AM 63.3868 -35.8997 243° Southwest  Level Estimated
Mon 08:31:00 AM 63.3323 -36.1362 243° Southwest  Level Estimated
Mon 08:32:00 AM 63.2775 -36.3719 243° Southwest  Level Estimated
Mon 08:33:00 AM 63.2222 -36.6067 242° Southwest  Level Estimated
Mon 08:34:00 AM 63.1665 -36.8405 242° Southwest  Level Estimated
Mon 08:35:00 AM 63.1105 -37.0735 242° Southwest  Level Estimated
Mon 08:36:00 AM 63.0541 -37.3055 242° Southwest  Level Estimated
Mon 08:37:00 AM 62.9973 -37.5367 242° Southwest  Level Estimated
Mon 08:38:00 AM 62.9401 -37.7670 241° Southwest  Level Estimated
Mon 08:39:00 AM 62.8826 -37.9963 241° Southwest  Level Estimated
Mon 08:40:00 AM 62.8247 -38.2248 241° Southwest  Level Estimated
Mon 08:41:00 AM 62.7664 -38.4523 241° Southwest  Level Estimated
Mon 08:42:00 AM 62.7077 -38.6790 241° Southwest  Level Estimated
Mon 08:43:00 AM 62.6487 -38.9048 240° Southwest  Level Estimated
Mon 08:44:00 AM 62.5894 -39.1296 240° Southwest  Level Estimated
Mon 08:45:00 AM 62.5296 -39.3536 240° Southwest  Level Estimated
Mon 08:46:00 AM 62.4695 -39.5766 240° Southwest  Level Estimated
Mon 08:47:00 AM 62.4091 -39.7988 240° Southwest  Level Estimated
Mon 08:48:00 AM 62.3483 -40.0201 239° Southwest  Level Estimated
Mon 08:49:00 AM 62.2872 -40.2404 239° Southwest  Level Estimated
Mon 08:50:00 AM 62.2257 -40.4599 239° Southwest  Level Estimated
Mon 08:51:00 AM 62.1638 -40.6785 239° Southwest  Level Estimated
Mon 08:52:00 AM 62.1016 -40.8961 239° Southwest  Level Estimated
Mon 08:53:00 AM 62.0391 -41.1129 238° Southwest  Level Estimated
Mon 08:54:00 AM 61.9763 -41.3288 238° Southwest  Level Estimated
Mon 08:54:11 AM 64.7250 -50.5960 238° Southwest 497 572 38,000  Level FlightAware ADS-B
Mon 08:54:53 AM 64.6530 -50.7490 222° Southwest 495 570 38,000  Level FlightAware ADS-B
Mon 08:55:00 AM 61.9131 -41.5438 238° Southwest  Level Estimated
Mon 08:55:37 AM 64.5790 -50.9040 222° Southwest 493 567 38,000  Level FlightAware ADS-B
Mon 08:56:17 AM 64.5100 -51.0480 222° Southwest 489 563 38,000  Level FlightAware ADS-B
Mon 08:56:57 AM 64.4430 -51.1880 222° Southwest 488 562 38,000  Level FlightAware ADS-B
Mon 08:57:41 AM 64.3700 -51.3380 222° Southwest 487 560 38,000  Level FlightAware ADS-B
Mon 08:58:17 AM 64.3080 -51.4650 222° Southwest 485 558 38,000  Level FlightAware ADS-B
Mon 08:58:58 AM 64.2390 -51.6060 222° Southwest 487 560 38,000  Level FlightAware ADS-B
Mon 08:59:42 AM 64.1640 -51.7560 221° Southwest 488 562 38,000  Level FlightAware ADS-B
Mon 09:00:19 AM 64.1030 -51.8800 222° Southwest 487 560 38,000  Level FlightAware ADS-B
Mon 09:00:59 AM 64.0350 -52.0140 221° Southwest 487 560 38,000  Level FlightAware ADS-B
Mon 09:01:39 AM 63.9680 -52.1460 221° Southwest 488 562 38,000  Level FlightAware ADS-B
Mon 09:02:19 AM 63.9000 -52.2810 221° Southwest 489 563 38,000  Level FlightAware ADS-B
Mon 09:03:03 AM 63.8250 -52.4260 220° Southwest 486 559 38,000  Level FlightAware ADS-B
Mon 09:03:45 AM 63.7540 -52.5650 221° Southwest 486 559 38,000  Level FlightAware ADS-B
Mon 09:04:25 AM 63.6860 -52.6970 221° Southwest 486 559 38,000  Level FlightAware ADS-B
Mon 09:05:07 AM 63.6140 -52.8340 220° Southwest 488 562 38,000  Level FlightAware ADS-B
Mon 09:05:50 AM 63.5380 -52.9770 220° Southwest 491 565 38,000  Level FlightAware ADS-B
Mon 09:06:34 AM 63.4620 -53.1220 220° Southwest 492 566 38,000  Level FlightAware ADS-B
Mon 09:07:14 AM 63.3920 -53.2520 220° Southwest 492 566 38,000  Level FlightAware ADS-B
Mon 09:07:58 AM 63.3170 -53.3930 220° Southwest 492 566 38,000  Level FlightAware ADS-B
Mon 09:08:39 AM 63.2460 -53.5230 220° Southwest 489 563 38,000  Level FlightAware ADS-B
Mon 09:09:18 AM 63.1770 -53.6500 220° Southwest 485 558 38,000  Level FlightAware ADS-B
Mon 09:10:04 AM 63.0980 -53.7930 219° Southwest 485 558 38,000  Level FlightAware ADS-B
Mon 09:10:44 AM 63.0290 -53.9190 220° Southwest 485 558 38,000  Level FlightAware ADS-B
Mon 09:11:28 AM 62.9730 -54.0210 220° Southwest 483 556 38,000  Level FlightAware ADS-B
Mon 09:12:30 AM 62.8580 -54.2250 219° Southwest 482 555 38,000  Level FlightAware ADS-B
Mon 09:13:06 AM 62.8050 -54.3190 219° Southwest 482 555 38,000  Level FlightAware ADS-B
Mon 09:13:56 AM 62.7310 -54.4490 219° Southwest 482 555 38,000  Level FlightAware ADS-B
Mon 09:14:44 AM 62.6610 -54.5740 219° Southwest 482 555 38,000  Level FlightAware ADS-B
Mon 09:15:20 AM 62.6070 -54.6670 218° Southwest 482 555 38,000  Level FlightAware ADS-B
Mon 09:16:08 AM 62.5370 -54.7920 219° Southwest 482 555 38,000  Level FlightAware ADS-B
Mon 09:16:57 AM 62.4650 -54.9180 219° Southwest 482 555 38,000  Level FlightAware ADS-B
Mon 09:17:33 AM 62.4110 -55.0110 219° Southwest 482 555 38,000  Level FlightAware ADS-B
Mon 09:18:21 AM 62.3410 -55.1340 219° Southwest 482 555 38,000  Level FlightAware ADS-B
Mon 09:18:57 AM 62.2880 -55.2270 219° Southwest 482 555 38,000  Level FlightAware ADS-B
Mon 09:19:45 AM 62.2170 -55.3500 219° Southwest 482 555 38,000  Level FlightAware ADS-B
Mon 09:20:21 AM 62.1640 -55.4420 219° Southwest 482 555 38,000  Level FlightAware ADS-B
Mon 09:21:09 AM 62.0930 -55.5640 219° Southwest 482 555 38,000  Level FlightAware ADS-B
Mon 09:21:46 AM 62.0390 -55.6580 219° Southwest 482 555 38,000  Level FlightAware ADS-B
Mon 09:22:45 AM 61.8000 -55.9833 219° Southwest 480 552 38,000  Level Gander Center
Mon 09:23:45 AM 61.7000 -56.1667 221° Southwest 480 552 38,000  Level Gander Center
Mon 09:24:45 AM 61.6000 -56.3333 218° Southwest 470 541 38,000  Level Gander Center
Mon 09:25:45 AM 61.4833 -56.4833 212° Southwest 480 552 38,000  Level Gander Center
Mon 09:27:45 AM 61.2833 -56.8167 219° Southwest 480 552 38,000  Level Gander Center
Mon 09:28:45 AM 61.1667 -56.9833 215° Southwest 480 552 38,000  Level Gander Center
Mon 09:29:45 AM 61.0667 -57.1667 222° Southwest 480 552 38,000  Level Gander Center
Mon 09:30:45 AM 60.9667 -57.3167 216° Southwest 480 552 38,000  Level Gander Center
Mon 09:31:45 AM 60.8667 -57.4667 216° Southwest 470 541 38,000  Level Gander Center
Mon 09:32:45 AM 60.7500 -57.6167 212° Southwest 470 541 38,000  Level Gander Center
Mon 09:33:45 AM 60.6333 -57.7833 215° Southwest 470 541 38,000  Level Gander Center
Mon 09:34:45 AM 60.5500 -57.9333 222° Southwest 470 541 38,000  Level Gander Center
Mon 09:35:45 AM 60.4333 -58.0833 212° Southwest 470 541 38,000  Level Gander Center
Mon 09:36:45 AM 60.3333 -58.2667 222° Southwest 470 541 38,000  Level Gander Center
Mon 09:37:45 AM 60.2167 -58.4000 210° Southwest 470 541 38,000  Level Gander Center
Mon 09:38:45 AM 60.1167 -58.5500 217° Southwest 470 541 38,000  Level Gander Center
Mon 09:39:45 AM 60.0167 -58.6833 214° Southwest 470 541 38,000  Level Gander Center
Mon 09:40:45 AM 59.9167 -58.8667 223° Southwest 460 529 38,000  Level Gander Center
Mon 09:41:45 AM 59.8000 -59.0000 210° Southwest 460 529 38,000  Level Gander Center
Mon 09:42:45 AM 59.7000 -59.1333 214° Southwest 460 529 38,000  Level Gander Center
Mon 09:43:45 AM 59.5833 -59.2833 213° Southwest 460 529 38,000  Level Gander Center
Mon 09:44:45 AM 59.4833 -59.4167 214° Southwest 470 541 38,000  Level Gander Center
Mon 09:45:45 AM 59.3667 -59.5833 216° Southwest 460 529 38,000  Level Gander Center
Mon 09:46:45 AM 59.2833 -59.7167 219° Southwest 460 529 38,000  Level Gander Center
Mon 09:47:45 AM 59.1667 -59.8500 210° Southwest 460 529 38,000  Level Gander Center
Mon 09:48:45 AM 59.0667 -59.9833 214° Southwest 460 529 38,000  Level Gander Center
Mon 09:49:45 AM 58.9500 -60.1167 211° Southwest 460 529 38,000  Level Gander Center
Mon 09:50:45 AM 58.8500 -60.2833 221° Southwest 470 541 38,000  Level Gander Center
Mon 09:51:45 AM 58.7333 -60.4167 211° Southwest 470 541 38,000  Level Gander Center
Mon 09:52:45 AM 58.6333 -60.5500 215° Southwest 460 529 38,000  Level Gander Center
Mon 09:53:45 AM 58.5333 -60.7000 218° Southwest 460 529 38,000  Level Gander Center
Mon 09:54:45 AM 58.4333 -60.8667 221° Southwest 450 518 38,000  Level Gander Center
Mon 09:55:45 AM 58.3333 -61.0000 215° Southwest 460 529 38,000  Level Gander Center
Mon 09:56:45 AM 58.2333 -61.1500 218° Southwest 470 541 38,000  Level Gander Center
Mon 09:57:45 AM 58.1167 -61.3167 217° Southwest 470 541 38,000  Level Gander Center
Mon 09:58:45 AM 58.0167 -61.4667 218° Southwest 450 518 38,000  Level Gander Center
Mon 09:59:45 AM 57.9167 -61.6000 215° Southwest 460 529 38,000  Level Gander Center
Mon 10:00:45 AM 57.8167 -61.7500 219° Southwest 460 529 38,000  Level Gander Center
Mon 10:01:45 AM 57.7167 -61.9000 219° Southwest 460 529 38,000  Level Gander Center
Mon 10:02:45 AM 57.6167 -62.0333 216° Southwest 450 518 38,000  Level Gander Center
Mon 10:03:45 AM 57.5167 -62.1833 219° Southwest 460 529 38,000  Level Gander Center
Mon 10:04:45 AM 57.4167 -62.3000 212° Southwest 460 529 38,000  Level Gander Center
Mon 10:05:45 AM 57.3167 -62.4500 219° Southwest 450 518 38,000  Level Gander Center
Mon 10:06:45 AM 57.2167 -62.5833 216° Southwest 450 518 38,000  Level Gander Center
Mon 10:07:45 AM 57.1000 -62.7000 209° Southwest 470 541 38,000  Level Gander Center
Mon 10:08:45 AM 57.0000 -62.7833 204° Southwest 460 529 38,000  Level Gander Center
Mon 10:09:45 AM 56.8833 -62.9000 209° Southwest 470 541 38,000  Level Gander Center
Mon 10:10:45 AM 56.7333 -62.9833 197° South 460 529 38,000  Level Gander Center
Mon 10:11:45 AM 56.6167 -63.1000 209° Southwest 470 541 38,000  Level Gander Center
Mon 10:12:45 AM 56.5000 -63.1833 202° Southwest 450 518 38,000  Level Gander Center
Mon 10:13:45 AM 56.4000 -63.2667 205° Southwest 460 529 38,000  Level Gander Center
Mon 10:14:45 AM 56.2833 -63.3833 209° Southwest 470 541 38,000  Level Gander Center
Mon 10:15:45 AM 56.1667 -63.4667 202° Southwest 480 552 38,000  Level Gander Center
Mon 10:16:45 AM 56.0500 -63.5833 209° Southwest 460 529 38,000  Level Gander Center
Mon 10:17:45 AM 55.9333 -63.6667 202° Southwest 470 541 38,000  Level Gander Center
Mon 10:18:45 AM 55.8167 -63.7500 202° Southwest 460 529 38,000  Level Gander Center
Mon 10:19:45 AM 55.7000 -63.8667 209° Southwest 460 529 38,000  Level Gander Center
Mon 10:20:45 AM 55.5667 -63.9333 196° South 470 541 38,000  Level Gander Center
Mon 10:21:45 AM 55.4500 -64.0500 210° Southwest 460 529 38,000  Level Gander Center
Mon 10:22:45 AM 55.3333 -64.1333 202° Southwest 460 529 38,000 150 Level Gander Center
Mon 10:23:45 AM 55.2167 -64.2167 202° Southwest 450 518 38,300 400 Climbing Gander Center
Mon 10:24:45 AM 55.1000 -64.3167 206° Southwest 460 529 38,800 750 Climbing Gander Center
Mon 10:25:45 AM 55.0000 -64.4000 206° Southwest 460 529 39,800 600 Climbing Gander Center
Mon 10:26:45 AM 54.8833 -64.4833 202° Southwest 440 506 40,000 100 Climbing Gander Center
Mon 10:27:45 AM 54.7500 -64.5500 196° South 450 518 40,000  Level Gander Center
Mon 10:28:45 AM 54.6500 -64.6333 206° Southwest 440 506 40,000  Level Gander Center
Mon 10:29:45 AM 54.5333 -64.7333 206° Southwest 440 506 40,000  Level Gander Center
Mon 10:30:45 AM 54.4333 -64.8167 206° Southwest 440 506 40,000  Level Gander Center
Mon 10:31:45 AM 54.3167 -64.9000 203° Southwest 430 495 40,000  Level Gander Center
Mon 10:32:45 AM 54.2167 -64.9667 201° Southwest 430 495 40,000  Level Gander Center
Mon 10:33:45 AM 54.0833 -65.0500 200° South 420 483 40,000  Level Gander Center
Mon 10:34:45 AM 53.9833 -65.1167 201° Southwest 430 495 40,000  Level Gander Center
Mon 10:35:45 AM 53.8833 -65.2000 206° Southwest 410 472 40,000  Level Gander Center
Mon 10:36:45 AM 53.7667 -65.2667 199° South 420 483 40,000  Level Gander Center
Mon 10:37:45 AM 53.6667 -65.3500 206° Southwest 410 472 40,000  Level Gander Center
Mon 10:38:45 AM 53.5667 -65.4167 202° Southwest 420 483 40,000  Level Gander Center
Mon 10:39:45 AM 53.4333 -65.5167 204° Southwest 430 495 40,000  Level Gander Center
Mon 10:40:45 AM 53.3333 -65.6000 206° Southwest 430 495 40,000  Level Gander Center
Mon 10:41:45 AM 53.2333 -65.6667 202° Southwest 430 495 40,000  Level Gander Center
Mon 10:42:45 AM 53.1167 -65.7333 199° South 430 495 40,000  Level Gander Center
Mon 10:43:45 AM 53.0167 -65.8167 207° Southwest 430 495 40,000  Level Gander Center
Mon 10:44:45 AM 52.8833 -65.8833 197° South 430 495 40,000  Level Gander Center
Mon 10:45:45 AM 52.7833 -65.9500 202° Southwest 440 506 40,000  Level Gander Center
Mon 10:46:45 AM 52.6667 -66.0500 207° Southwest 440 506 40,000  Level Gander Center
Mon 10:47:45 AM 52.5500 -66.1167 199° South 440 506 40,000  Level Gander Center
Mon 10:48:45 AM 52.4333 -66.2000 204° Southwest 440 506 40,000  Level Gander Center
Mon 10:49:45 AM 52.3167 -66.2667 199° South 440 506 40,000  Level Gander Center
Mon 10:50:45 AM 52.2167 -66.3333 202° Southwest 440 506 40,000  Level Gander Center
Mon 10:51:44 AM 52.0833 -66.3833 193° South 440 506 40,000  Level Montreal Center
Mon 10:52:44 AM 52.0000 -66.4667 212° Southwest 440 506 40,000  Level Montreal Center
Mon 10:53:44 AM 51.8667 -66.5333 197° South 440 506 40,000  Level Montreal Center
Mon 10:54:44 AM 51.7500 -66.6000 199° South 440 506 40,000  Level Montreal Center
Mon 10:55:44 AM 51.6333 -66.6667 200° South 440 506 40,000  Level Montreal Center
Mon 10:56:44 AM 51.5167 -66.7500 204° Southwest 440 506 40,000  Level Montreal Center
Mon 10:57:44 AM 51.4000 -66.8333 204° Southwest 440 506 40,000  Level Montreal Center
Mon 10:58:44 AM 51.3000 -66.9000 203° Southwest 440 506 40,000  Level Montreal Center
Mon 10:59:44 AM 51.1833 -66.9500 195° South 440 506 40,000  Level Montreal Center
Mon 11:00:44 AM 51.0500 -67.0333 201° Southwest 440 506 40,000  Level Montreal Center
Mon 11:01:44 AM 50.9500 -67.1167 208° Southwest 450 518 40,000  Level Montreal Center
Mon 11:02:44 AM 50.8333 -67.1833 200° South 450 518 40,000  Level Montreal Center
Mon 11:03:44 AM 50.7167 -67.2667 204° Southwest 450 518 40,000  Level Montreal Center
Mon 11:04:41 AM 50.6000 -67.3500 204° Southwest 450 518 40,000  Level Moncton Center
Mon 11:05:41 AM 50.4833 -67.4167 200° South 460 529 40,000  Level Moncton Center
Mon 11:06:41 AM 50.3500 -67.5000 202° Southwest 460 529 40,000  Level Moncton Center
Mon 11:07:41 AM 50.2333 -67.5833 205° Southwest 460 529 40,000  Level Moncton Center
Mon 11:08:41 AM 50.1167 -67.6333 195° South 460 529 40,000  Level Moncton Center
Mon 11:09:41 AM 50.0000 -67.7000 200° South 460 529 40,000  Level Moncton Center
Mon 11:10:41 AM 49.8833 -67.8000 209° Southwest 470 541 40,000  Level Moncton Center
Mon 11:11:41 AM 49.7500 -67.8667 198° South 470 541 40,000  Level Moncton Center
Mon 11:12:41 AM 49.6333 -67.9333 200° South 470 541 40,000  Level Moncton Center
Mon 11:13:41 AM 49.5167 -68.0167 205° Southwest 470 541 40,000  Level Moncton Center
Mon 11:14:41 AM 49.3833 -68.0833 198° South 470 541 40,000  Level Moncton Center
Mon 11:15:44 AM 49.2667 -68.1167 191° South 470 541 40,000  Level Montreal Center
Mon 11:16:44 AM 49.1500 -68.1667 196° South 470 541 40,000  Level Montreal Center
Mon 11:17:44 AM 49.0333 -68.2833 213° Southwest 460 529 40,000  Level Montreal Center
Mon 11:18:44 AM 48.9333 -68.3833 213° Southwest 450 518 40,000  Level Montreal Center
Mon 11:24:55 AM 48.2760 -69.0850 213° Southwest 459 528 40,000  Level FlightAware ADS-B
Mon 11:25:31 AM 48.2190 -69.1410 213° Southwest 459 528 40,000  Level FlightAware ADS-B
Mon 11:26:25 AM 48.1190 -69.2400 213° Southwest 461 531 40,000  Level FlightAware ADS-B
Mon 11:27:01 AM 48.0600 -69.2960 212° Southwest 462 532 40,000  Level FlightAware ADS-B
Mon 11:28:20 AM 48.0060 -69.3500 214° Southwest 462 532 40,000  Level FlightAware ADS-B
Mon 11:29:06 AM 47.8330 -69.5170 213° Southwest 469 540 40,000  Level FlightAware ADS-B
Mon 11:29:46 AM 47.7550 -69.5930 213° Southwest 472 543 40,000  Level FlightAware ADS-B
Mon 11:30:31 AM 47.6720 -69.6710 212° Southwest 474 545 40,000  Level FlightAware ADS-B
Mon 11:31:14 AM 47.5970 -69.7420 213° Southwest 474 545 40,000  Level FlightAware ADS-B
Mon 11:31:51 AM 47.5260 -69.8090 213° Southwest 473 544 40,000  Level FlightAware ADS-B
Mon 11:32:32 AM 47.4500 -69.8800 212° Southwest 474 545 40,000  Level FlightAware ADS-B
Mon 11:33:17 AM 47.3690 -69.9560 212° Southwest 474 545 40,000  Level FlightAware ADS-B
Mon 11:34:02 AM 47.2810 -70.0370 212° Southwest 474 545 40,000  Level FlightAware ADS-B
Mon 11:34:43 AM 47.2110 -70.1030 213° Southwest 476 548 40,000  Level FlightAware ADS-B
Mon 11:35:22 AM 47.1360 -70.1720 212° Southwest 475 547 40,000  Level FlightAware ADS-B
Mon 11:36:02 AM 47.0600 -70.2420 212° Southwest 475 547 40,000  Level FlightAware ADS-B
Mon 11:36:32 AM 47.0040 -70.2940 212° Southwest 475 547 40,000  Level FlightAware ADS-B
Mon 11:37:12 AM 46.9300 -70.3620 212° Southwest 473 544 40,000  Level FlightAware ADS-B
Mon 11:37:57 AM 46.8450 -70.4400 212° Southwest 471 542 40,000  Level FlightAware ADS-B
Mon 11:38:37 AM 46.7760 -70.5030 212° Southwest 471 542 40,000  Level FlightAware ADS-B
Mon 11:39:15 AM 46.7150 -70.5580 212° Southwest 471 542 40,000  Level FlightAware ADS-B
Mon 11:39:57 AM 46.6250 -70.6390 212° Southwest 470 541 40,000  Level FlightAware ADS-B
Mon 11:40:37 AM 46.5540 -70.7030 212° Southwest 471 542 40,000  Level FlightAware ADS-B
Mon 11:41:17 AM 46.4790 -70.7700 212° Southwest 471 542 40,000  Level FlightAware ADS-B
Mon 11:42:02 AM 46.3950 -70.8460 212° Southwest 471 542 40,000  Level FlightAware ADS-B
Mon 11:42:47 AM 46.3100 -70.9220 212° Southwest 471 542 40,000  Level FlightAware ADS-B
Mon 11:43:27 AM 46.2390 -70.9850 212° Southwest 470 541 40,000  Level FlightAware ADS-B
Mon 11:44:03 AM 46.1720 -71.0450 212° Southwest 468 539 40,000  Level FlightAware ADS-B
Mon 11:44:53 AM 46.0810 -71.1250 211° Southwest 467 537 40,000  Level FlightAware ADS-B
Mon 11:45:33 AM 46.0050 -71.1920 211° Southwest 468 539 40,000  Level FlightAware ADS-B
Mon 11:46:18 AM 45.9250 -71.2620 211° Southwest 469 540 40,000  Level FlightAware ADS-B
Mon 11:46:57 AM 45.8470 -71.3300 211° Southwest 469 540 40,000  Level FlightAware ADS-B
Mon 11:47:40 AM 45.7680 -71.3990 211° Southwest 469 540 40,000  Level FlightAware ADS-B
Mon 11:48:19 AM 45.7040 -71.4550 211° Southwest 469 540 40,000  Level FlightAware ADS-B
Mon 11:48:56 AM 45.6290 -71.5190 211° Southwest 470 541 40,000  Level FlightAware ADS-B
Mon 11:49:36 AM 45.5550 -71.5840 212° Southwest 471 542 40,000  Level FlightAware ADS-B
Mon 11:50:18 AM 45.4820 -71.6460 211° Southwest 472 543 40,000  Level FlightAware ADS-B
Mon 11:51:01 AM 45.3970 -71.7190 211° Southwest 472 543 40,000  Level FlightAware ADS-B
Mon 11:51:41 AM 45.3220 -71.7830 211° Southwest 472 543 40,000  Level FlightAware ADS-B
Mon 11:52:26 AM 45.2380 -71.8570 212° Southwest 474 545 40,000  Level FlightAware ADS-B
Mon 11:53:11 AM 45.1550 -71.9330 213° Southwest 474 545 40,000  Level FlightAware ADS-B
Mon 11:53:51 AM 45.0800 -72.0000 212° Southwest 473 544 40,000  Level FlightAware ADS-B
Mon 11:54:31 AM 45.0050 -72.0660 212° Southwest 471 542 40,000  Level FlightAware ADS-B
Mon 11:55:11 AM 44.9320 -72.1310 212° Southwest 472 543 40,000  Level FlightAware ADS-B
Mon 11:55:56 AM 44.8480 -72.2050 212° Southwest 473 544 40,000  Level FlightAware ADS-B
Mon 11:56:36 AM 44.7740 -72.2700 212° Southwest 475 547 40,000  Level FlightAware ADS-B
Mon 11:57:26 AM 44.6830 -72.3500 212° Southwest 476 548 40,000  Level FlightAware ADS-B
Mon 11:58:09 AM 44.6000 -72.4230 212° Southwest 477 549 40,000  Level FlightAware ADS-B
Mon 11:58:49 AM 44.5250 -72.4890 212° Southwest 478 550 40,000  Level FlightAware ADS-B
Mon 11:59:35 AM 44.4370 -72.5640 211° Southwest 480 552 40,000  Level FlightAware ADS-B
Mon 12:00:15 PM 44.3630 -72.6290 212° Southwest 480 552 40,000  Level FlightAware ADS-B
Mon 12:00:59 PM 44.2800 -72.7010 212° Southwest 481 554 40,000 -71 Level FlightAware ADS-B
Mon 12:01:39 PM 44.2030 -72.7660 211° Southwest 482 555 39,900 -538 Descending FlightAware ADS-B
Mon 12:02:17 PM 44.1330 -72.8270 212° Southwest 475 547 39,300 -917 Descending FlightAware ADS-B
Mon 12:02:51 PM 44.0730 -72.8780 211° Southwest 466 536 38,800 -975 Descending FlightAware ADS-B
Mon 12:03:37 PM 43.9870 -72.9510 211° Southwest 457 526 38,000 -977 Descending FlightAware ADS-B
Mon 12:04:17 PM 43.9130 -73.0140 212° Southwest 469 540 37,400 -988 Descending FlightAware ADS-B
Mon 12:05:02 PM 43.8300 -73.0850 212° Southwest 469 540 36,600 -1,271 Descending FlightAware ADS-B
Mon 12:05:42 PM 43.7560 -73.1480 212° Southwest 469 540 35,600 -2,074 Descending FlightAware ADS-B
Mon 12:06:23 PM 43.6820 -73.2100 211° Southwest 474 545 33,800 -2,753 Descending FlightAware ADS-B
Mon 12:07:07 PM 43.5960 -73.2810 211° Southwest 473 544 31,700 -2,625 Descending FlightAware ADS-B
Mon 12:07:59 PM 43.4970 -73.3640 211° Southwest 477 549 29,600 -1,340 Descending FlightAware ADS-B
Mon 12:08:41 PM 43.4310 -73.4190 211° Southwest 477 549 29,600 -2,022 Level FlightAware ADS-B
Mon 12:09:28 PM 43.3360 -73.4980 211° Southwest 451 519 26,600 -3,073 Descending FlightAware ADS-B
Mon 12:10:03 PM 43.2710 -73.5520 211° Southwest 450 518 25,400 -2,195 Descending FlightAware ADS-B
Mon 12:10:50 PM 43.1890 -73.6110 208° Southwest 437 503 23,600 -1,082 Descending FlightAware ADS-B
Mon 12:12:05 PM 43.0690 -73.6750 201° Southwest 446 513 23,200 -1,617 Descending FlightAware ADS-B
Mon 12:12:45 PM 42.9990 -73.6970 193° South 454 522 20,500 -1,653 Descending FlightAware ADS-B
Mon 12:13:43 PM 42.9010 -73.7410 198° South 454 522 20,500  Level FlightAware ADS-B
Mon 12:14:19 PM 42.8400 -73.7680 198° South 454 522 20,500  Level FlightAware ADS-B
Mon 12:14:55 PM 42.7790 -73.7950 198° South 454 522 20,500 -3,926 Level FlightAware ADS-B
Mon 12:15:40 PM 42.6542 -73.8517 198° South 421 484 15,200 -3,143 Descending Boston Center
Mon 12:16:40 PM 42.5389 -73.8969 196° South 395 455 15,000 -100 Descending Boston Center
Mon 12:17:40 PM 42.4364 -73.9422 198° South 395 455 15,000 -150 Level Boston Center
Mon 12:18:40 PM 42.3356 -73.9875 198° South 384 442 14,700 -400 Descending Boston Center
Mon 12:19:40 PM 42.2328 -74.0328 198° South 384 442 14,200 -350 Descending Boston Center
Mon 12:20:40 PM 42.1342 -74.0778 199° South 384 442 14,000 -300 Descending Boston Center
Mon 12:21:40 PM 42.0314 -74.1228 198° South 384 442 13,600 -700 Descending Boston Center
Mon 12:22:40 PM 41.9308 -74.1675 198° South 384 442 12,600 -1,000 Descending Boston Center
Mon 12:23:40 PM 41.8258 -74.2119 198° South 391 450 11,600 -1,050 Descending Boston Center
Mon 12:24:40 PM 41.7314 -74.2539 198° South 384 442 10,500 -800 Descending Boston Center
Mon 12:25:40 PM 41.6392 -74.2956 199° South 362 417 10,000 -350 Descending Boston Center
Mon 12:26:40 PM 41.5694 -74.3436 207° Southwest 325 374 9,800 -502 Descending Boston Center
Mon 12:32:38 PM 41.0920 -74.5146 207° Southwest 290 334 6,500 -544 Descending FlightAware ADS-B
Mon 12:32:44 PM 41.0828 -74.5165 189° South 289 333 6,500 -571 Level FlightAware ADS-B
Mon 12:32:59 PM 41.0625 -74.5209 189° South 289 333 6,300 -632 Descending FlightAware ADS-B
Mon 12:33:03 PM 41.0576 -74.5212 183° South 293 337 6,300 -400 Level FlightAware ADS-B
Mon 12:33:29 PM 41.0230 -74.5186 177° South 293 337 6,100 -545 Descending FlightAware ADS-B
Mon 12:33:36 PM 41.0137 -74.5179 177° South 290 334 6,000 -529 Descending FlightAware ADS-B
Mon 12:34:03 PM 40.9774 -74.5239 187° South 293 337 5,800 -346 Descending FlightAware ADS-B
Mon 12:34:28 PM 40.9437 -74.5273 184° South 294 338 5,700 -118 Descending FlightAware ADS-B
Mon 12:34:54 PM 40.9081 -74.5241 176° South 292 336 5,700  Level FlightAware ADS-B
Mon 12:35:25 PM 40.8654 -74.5199 176° South 292 336 5,700  Level FlightAware ADS-B
Mon 12:35:41 PM 40.8445 -74.5178 176° South 293 337 5,700  Level FlightAware ADS-B
Mon 12:35:43 PM 40.8414 -74.5175 176° South 293 337 5,700  Level FlightAware ADS-B
Mon 12:36:09 PM 40.8073 -74.5142 176° South 290 334 5,700  Level FlightAware ADS-B
Mon 12:36:24 PM 40.7872 -74.5124 176° South 292 336 5,700  Level FlightAware ADS-B
Mon 12:36:50 PM 40.7514 -74.5115 179° South 290 334 5,700 -105 Level FlightAware ADS-B
Mon 12:37:21 PM 40.7104 -74.5167 185° South 287 330 5,600 -329 Descending FlightAware ADS-B
Mon 12:38:03 PM 40.6546 -74.5240 186° South 287 330 5,300 -411 Descending FlightAware ADS-B
Mon 12:38:34 PM 40.6148 -74.5293 186° South 268 308 5,100 -383 Descending FlightAware ADS-B
Mon 12:38:50 PM 40.5956 -74.5318 186° South 268 308 5,000 -364 Descending FlightAware ADS-B
Mon 12:39:07 PM 40.5758 -74.5344 186° South 249 287 4,900 -324 Descending FlightAware ADS-B
Mon 12:39:27 PM 40.5542 -74.5372 186° South 242 278 4,800 -300 Descending FlightAware ADS-B
Mon 12:39:47 PM 40.5309 -74.5392 184° South 242 278 4,700 -343 Descending FlightAware ADS-B
Mon 12:40:02 PM 40.5157 -74.5335 164° South 244 281 4,600 -600 Descending FlightAware ADS-B
Mon 12:40:17 PM 40.5000 -74.5248 157° South 241 277 4,400 -727 Descending FlightAware ADS-B
Mon 12:40:35 PM 40.4817 -74.5147 157° South 239 275 4,200 -514 Descending FlightAware ADS-B
Mon 12:40:52 PM 40.4645 -74.5050 157° South 239 275 4,100 -529 Descending FlightAware ADS-B
Mon 12:41:09 PM 40.4474 -74.4954 157° South 241 277 3,900 -545 Descending FlightAware ADS-B
Mon 12:41:25 PM 40.4302 -74.4856 157° South 239 275 3,800 -353 Descending FlightAware ADS-B
Mon 12:41:26 PM 40.4297 -74.4854 163° South 239 275 3,800 -429 Level FlightAware ADS-B
Mon 12:41:39 PM 40.4163 -74.4771 155° Southeast 240 276 3,700 -632 Descending FlightAware ADS-B
Mon 12:41:45 PM 40.4110 -74.4718 143° Southeast 242 278 3,600 -462 Descending FlightAware ADS-B
Mon 12:41:52 PM 40.4061 -74.4642 130° Southeast 239 275 3,600  Level FlightAware ADS-B
Mon 12:41:53 PM 40.4057 -74.4634 123° Southeast 242 278 3,600 -1,200 Level FlightAware ADS-B
Mon 12:41:57 PM 40.4036 -74.4578 116° Southeast 240 276 3,500 -750 Descending FlightAware ADS-B
Mon 12:42:01 PM 40.4022 -74.4523 108° East 238 274 3,500 -286 Level FlightAware ADS-B
Mon 12:42:18 PM 40.4037 -74.4283 85° East 234 269 3,400 -600 Descending FlightAware ADS-B
Mon 12:42:21 PM 40.4050 -74.4245 66° East 232 267 3,300 -632 Descending FlightAware ADS-B
Mon 12:42:37 PM 40.4134 -74.4050 60° Northeast 234 269 3,200 -444 Descending FlightAware ADS-B
Mon 12:42:48 PM 40.4189 -74.3928 59° Northeast 229 264 3,100 -429 Descending FlightAware ADS-B
Mon 12:43:33 PM 40.4410 -74.3450 59° Northeast 205 236 2,800 -254 Descending FlightAware ADS-B
Mon 12:43:59 PM 40.4540 -74.3180 58° Northeast 189 217 2,800 -143 Level FlightAware ADS-B
Mon 12:44:15 PM 40.4660 -74.3080 32° Northeast 187 215 2,700  Descending FlightAware ADS-B
Mon 12:44:30 PM 40.4785 -74.3001 26° Northeast 189 217 2,800 400 Climbing FlightAware ADS-B

Login

Don't have an account? Register now (free) for customized features, flight alerts, and more!